createdAt,value
2023-01-01T13:17:29.789Z,12.25
2023-01-01T13:20:22.312Z,13.40
2023-01-01T13:22:50.132Z,9.85
2023-01-01T13:25:19.631Z,14.60
2023-01-01T13:27:57.035Z,7.20
2023-01-01T13:30:37.596Z,10.57
2023-01-01T13:33:27.289Z,10.38
2023-01-01T13:36:11.341Z,10.20
2023-01-01T13:38:47.784Z,7.38
2023-01-01T13:41:30.954Z,9.90
2023-01-01T13:44:01.707Z,13.65
2023-01-01T13:46:36.216Z,9.30
2023-01-01T13:49:04.449Z,13.40
2023-01-01T13:52:07.584Z,13.75
2023-01-01T13:54:48.391Z,16.52
2023-01-01T13:57:40.948Z,12.38
2023-01-01T14:00:49.866Z,10.88
2023-01-01T14:03:19.164Z,11.77
2023-01-01T14:06:00.211Z,19.13
2023-01-01T14:08:33.904Z,13.57
2023-01-01T14:11:03.627Z,12.95
2023-01-01T14:13:40.778Z,12.60
2023-01-01T14:16:13.759Z,7.90
2023-01-01T14:18:48.549Z,10.65
2023-01-01T14:21:26.445Z,8.15
2023-01-01T14:24:00.827Z,9.52
2023-01-01T14:26:30.515Z,6.35
2023-01-01T14:29:06.699Z,7.43
2023-01-01T14:31:42.332Z,6.88
2023-01-01T14:34:31.743Z,4.32
2023-01-01T14:37:01.952Z,3.67
2023-01-01T14:39:34.628Z,6.15
2023-01-01T14:42:06.672Z,5.22
2023-01-01T14:44:40.383Z,8.40
2023-01-01T14:47:26.792Z,7.45
2023-01-01T14:50:01.485Z,6.40
2023-01-01T14:52:31.524Z,5.07
2023-01-01T14:55:00.493Z,3.05
2023-01-01T14:57:34.966Z,2.97
2023-01-01T15:00:14.253Z,7.43
2023-01-01T15:02:42.105Z,4.55
2023-01-01T15:05:34.681Z,4.90
2023-01-01T15:08:06.226Z,5.60
2023-01-01T15:10:37.432Z,5.95
2023-01-01T15:13:06.690Z,8.40
2023-01-01T15:15:42.768Z,6.35
2023-01-01T15:18:57.848Z,7.82
2023-01-01T15:21:31.707Z,4.68
2023-01-01T15:24:11.381Z,7.75
2023-01-01T15:27:02.461Z,8.25
2023-01-01T15:29:39.477Z,7.78
2023-01-01T15:32:08.447Z,13.27
2023-01-01T15:34:48.146Z,7.13
2023-01-01T15:37:36.225Z,5.38
2023-01-01T15:43:21.238Z,10.50
2023-01-01T15:46:19.241Z,9.85
2023-01-01T15:48:50.696Z,6.78
2023-01-01T15:51:26.323Z,7.22
2023-01-01T15:54:00.415Z,8.55
2023-01-01T15:56:30.947Z,11.60
2023-01-01T15:59:07.121Z,5.53
2023-01-01T16:01:40.388Z,6.85
2023-01-01T16:04:20.799Z,12.98
2023-01-01T16:06:54.336Z,11.45
2023-01-01T16:09:22.256Z,7.85
2023-01-01T16:11:54.709Z,11.32
2023-01-01T16:14:22.874Z,13.15
2023-01-01T16:19:22.469Z,15.02
2023-01-01T16:21:50.177Z,9.38
2023-01-01T16:24:19.460Z,18.23
2023-01-01T16:26:48.607Z,10.18
2023-01-01T16:29:16.280Z,15.27
2023-01-01T16:31:44.918Z,12.40
2023-01-01T16:34:14.531Z,13.70
2023-01-01T16:36:43.455Z,14.55
2023-01-01T16:39:11.702Z,19.15
2023-01-01T16:44:14.197Z,19.30
2023-01-01T16:46:42.069Z,18.33
2023-01-01T16:49:09.741Z,17.90
2023-01-01T16:51:42.160Z,17.23
2023-01-01T16:54:11.165Z,19.48
2023-01-01T16:56:39.045Z,15.95
2023-01-01T16:59:06.883Z,15.23
2023-01-01T17:01:34.466Z,19.40
2023-01-01T17:04:02.195Z,18.80
2023-01-01T17:06:29.940Z,20.90
2023-01-01T17:09:01.081Z,17.83
2023-01-01T17:11:29.111Z,21.73
2023-01-01T17:13:59.723Z,18.15
2023-01-01T17:16:36.539Z,25.70
2023-01-01T17:19:16.133Z,25.05
2023-01-01T17:21:46.622Z,30.02
2023-01-01T17:24:15.617Z,22.52
2023-01-01T17:26:43.461Z,26.25
2023-01-01T17:29:11.986Z,20.60
2023-01-01T17:31:39.600Z,23.00
2023-01-01T17:34:10.762Z,20.10
2023-01-01T17:36:42.985Z,22.95
2023-01-01T17:39:12.398Z,20.02
2023-01-01T17:41:41.112Z,21.70
2023-01-01T17:44:09.580Z,20.25
2023-01-01T17:46:37.277Z,23.08
2023-01-01T17:49:05.419Z,24.30
2023-01-01T17:54:02.854Z,20.23
2023-01-01T17:56:30.552Z,23.40
2023-01-01T17:58:58.464Z,23.10
2023-01-01T18:01:32.083Z,20.15
2023-01-01T18:04:03.420Z,21.60
2023-01-01T18:06:34.113Z,17.75
2023-01-01T18:09:07.135Z,20.75
2023-01-01T18:11:35.255Z,29.52
2023-01-01T18:14:04.077Z,15.20
2023-01-01T18:16:34.303Z,23.48
2023-01-01T18:19:04.144Z,21.30
2023-01-01T18:21:33.127Z,22.95
2023-01-01T18:26:35.831Z,29.15
2023-01-01T18:29:04.683Z,21.15
2023-01-01T18:31:34.638Z,19.40
2023-01-01T18:34:04.566Z,25.73
2023-01-01T18:36:35.138Z,22.83
2023-01-01T18:39:13.597Z,24.33
2023-01-01T18:41:53.253Z,24.58
2023-01-01T18:44:22.026Z,22.60
2023-01-01T18:47:19.077Z,25.42
2023-01-01T18:49:48.995Z,26.35
2023-01-01T18:52:28.046Z,23.08
2023-01-01T18:55:10.656Z,24.90
2023-01-01T18:57:39.791Z,23.77
2023-01-01T19:00:24.470Z,32.53
2023-01-01T19:02:54.694Z,28.00
2023-01-01T19:05:34.040Z,22.30
2023-01-01T19:08:17.844Z,22.17
2023-01-01T19:10:48.481Z,24.38
2023-01-01T19:13:22.147Z,29.75
2023-01-01T19:15:54.611Z,27.38
2023-01-01T19:18:25.101Z,29.10
2023-01-01T19:21:02.363Z,33.63
2023-01-01T19:23:30.580Z,27.88
2023-01-01T19:28:33.527Z,33.90
2023-01-01T19:31:02.130Z,34.38
2023-01-01T19:33:31.091Z,31.75
2023-01-01T19:35:58.978Z,39.00
2023-01-01T19:38:26.700Z,26.85
2023-01-01T19:40:54.534Z,27.92
2023-01-01T19:43:22.328Z,21.42
2023-01-01T19:45:50.096Z,25.50
2023-01-01T19:48:18.714Z,23.10
2023-01-01T19:50:47.512Z,27.05
2023-01-01T19:53:15.282Z,19.25
2023-01-01T19:55:43.287Z,29.50
2023-01-01T20:00:38.708Z,18.85
2023-01-01T20:03:42.711Z,19.20
2023-01-01T20:08:22.231Z,12.20
2023-01-01T20:10:50.006Z,20.23
2023-01-01T20:13:17.585Z,19.75
2023-01-01T20:15:47.124Z,10.25
2023-01-01T20:18:14.904Z,25.10
2023-01-01T20:21:02.747Z,14.90
2023-01-01T20:23:30.356Z,19.70
2023-01-01T20:25:57.875Z,21.65
2023-01-01T20:28:44.064Z,24.88
2023-01-01T20:31:11.847Z,17.65
2023-01-01T20:33:39.523Z,23.80
2023-01-01T20:36:26.100Z,15.55
2023-01-01T20:38:53.686Z,15.82
2023-01-01T20:41:24.020Z,12.77
2023-01-01T20:43:53.698Z,19.48
2023-01-01T20:46:22.230Z,17.13
2023-01-01T20:48:49.813Z,22.23
2023-01-01T20:51:17.670Z,17.15
2023-01-01T20:53:45.280Z,10.63
2023-01-01T20:56:12.960Z,17.83
2023-01-01T20:58:47.658Z,16.52
2023-01-01T21:01:17.090Z,18.33
2023-01-01T21:03:44.818Z,10.38
2023-01-01T21:06:15.066Z,15.88
2023-01-01T21:08:47.302Z,10.88
2023-01-01T21:11:15.869Z,12.63
2023-01-01T21:13:46.942Z,16.67
2023-01-01T21:16:15.245Z,11.80
2023-01-01T21:18:43.512Z,14.70
2023-01-01T21:21:39.114Z,15.50
2023-01-01T21:24:14.689Z,15.35
2023-01-01T21:26:43.718Z,13.52
2023-01-01T21:29:18.766Z,11.20
2023-01-01T21:31:50.911Z,12.23
2023-01-01T21:34:43.412Z,8.35
2023-01-01T21:37:51.069Z,13.55
2023-01-01T21:40:40.051Z,6.57
2023-01-01T21:43:29.414Z,9.95
2023-01-01T21:46:02.114Z,11.65
2023-01-01T21:48:33.004Z,10.05
2023-01-01T21:51:02.296Z,8.60
2023-01-01T21:53:35.061Z,10.57
2023-01-01T21:56:35.078Z,9.82
2023-01-01T21:59:27.593Z,6.57
2023-01-01T22:02:08.526Z,9.38
2023-01-01T22:04:37.395Z,8.60
2023-01-01T22:07:56.999Z,8.43
2023-01-01T22:10:21.561Z,6.57
2023-01-01T22:13:00.282Z,12.93
2023-01-01T22:15:40.283Z,8.30
2023-01-01T22:18:08.388Z,11.50
2023-01-01T22:20:38.605Z,12.80
2023-01-01T22:23:31.882Z,7.25
2023-01-01T22:25:59.886Z,5.80
2023-01-01T22:28:33.415Z,6.47
2023-01-01T22:31:02.267Z,5.55
2023-01-01T22:33:40.603Z,10.75
2023-01-01T22:36:22.502Z,4.95
2023-01-01T22:38:50.164Z,9.60
2023-01-01T22:41:17.838Z,5.78
2023-01-01T22:43:47.209Z,5.03
2023-01-01T22:46:39.675Z,8.82
2023-01-01T22:49:31.410Z,6.07
2023-01-01T22:51:59.238Z,8.90
2023-01-01T22:54:27.052Z,7.63
2023-01-01T22:56:54.730Z,6.72
2023-01-01T22:59:23.634Z,8.85
2023-01-01T23:01:51.380Z,6.80
2023-01-01T23:04:22.819Z,6.85
2023-01-01T23:06:52.033Z,6.35
2023-01-01T23:09:20.127Z,11.82
2023-01-01T23:11:49.075Z,8.55
2023-01-01T23:14:38.873Z,7.68
2023-01-01T23:17:07.078Z,11.10
2023-01-01T23:19:34.962Z,5.45
2023-01-01T23:24:31.863Z,14.48
2023-01-01T23:27:00.663Z,12.43
2023-01-01T23:29:33.477Z,8.32
2023-01-01T23:32:02.227Z,11.68
2023-01-01T23:34:29.975Z,7.88
2023-01-01T23:36:58.535Z,13.13
2023-01-01T23:39:26.208Z,10.52
2023-01-01T23:41:54.272Z,9.77
2023-01-01T23:44:21.790Z,9.73
2023-01-01T23:46:49.388Z,11.45
2023-01-01T23:49:18.077Z,9.95
2023-01-01T23:51:46.330Z,8.70
2023-01-01T23:54:14.024Z,11.10
2023-01-01T23:56:42.939Z,8.55
2023-01-01T23:59:12.066Z,11.10
